Time;durP1;ratioP1;P1;durP2;ratioP2;P2;SDS_P1;SDS_P2;PMS_P1;PMS_P2;Temp;Humidity;BMP_temperature;BMP_pressure;BME280_temperature;BME280_humidity;BME280_pressure;Samples;Min_cycle;Max_cycle;Signal;HPM_P1;HPM_P2
2022/09/09 00:00:42;;;;;;;0.40;0.40;;;;;;;;;;1891779;75;26255;-46
2022/09/09 00:03:14;;;;;;;0.30;0.30;;;;;;;;;;1888922;75;26251;-47
2022/09/09 00:05:46;;;;;;;0.20;0.20;;;;;;;;;;1887079;75;26309;-43
2022/09/09 00:08:15;;;;;;;0.30;0.30;;;;;;;;;;1893890;75;26674;-47
2022/09/09 00:10:42;;;;;;;0.30;0.30;;;;;;;;;;1898862;75;27680;-46
2022/09/09 00:13:17;;;;;;;0.30;0.30;;;;;;;;;;1889584;75;26699;-48
2022/09/09 00:16:02;;;;;;;0.20;0.20;;;;;;;;;;1884576;75;26256;-49
2022/09/09 00:18:37;;;;;;;0.20;0.20;;;;;;;;;;1898610;75;26313;-46
2022/09/09 00:21:07;;;;;;;0.20;0.20;;;;;;;;;;1898174;75;26246;-48
2022/09/09 00:23:36;;;;;;;0.30;0.30;;;;;;;;;;1875055;75;26310;-51
2022/09/09 00:26:11;;;;;;;0.20;0.20;;;;;;;;;;1868763;75;26255;-45
2022/09/09 00:28:43;;;;;;;0.20;0.20;;;;;;;;;;1867942;75;26254;-45
2022/09/09 00:31:12;;;;;;;0.30;0.30;;;;;;;;;;1864987;75;27459;-55
2022/09/09 00:33:40;;;;;;;0.20;0.20;;;;;;;;;;1871923;75;26270;-50
2022/09/09 00:36:09;;;;;;;0.30;0.30;;;;;;;;;;1879216;75;26271;-45
2022/09/09 00:38:38;;;;;;;0.20;0.20;;;;;;;;;;1881309;75;26235;-48
2022/09/09 00:41:07;;;;;;;0.20;0.20;;;;;;;;;;1888453;75;26317;-49
2022/09/09 00:43:38;;;;;;;0.10;0.10;;;;;;;;;;1889276;75;26348;-44
2022/09/09 00:46:10;;;;;;;0.23;0.23;;;;;;;;;;1884669;75;26721;-49
2022/09/09 00:48:54;;;;;;;0.20;0.20;;;;;;;;;;1885722;75;26227;-45
2022/09/09 00:51:26;;;;;;;0.10;0.10;;;;;;;;;;1881184;75;26250;-46
2022/09/09 00:53:57;;;;;;;0.20;0.20;;;;;;;;;;1894527;75;26247;-48
2022/09/09 00:56:26;;;;;;;0.23;0.23;;;;;;;;;;1889269;75;27550;-48
2022/09/09 00:59:03;;;;;;;0.28;0.28;;;;;;;;;;1899355;75;26682;-48
2022/09/09 01:01:31;;;;;;;0.20;0.20;;;;;;;;;;1877173;75;26289;-49
2022/09/09 01:03:59;;;;;;;0.20;0.20;;;;;;;;;;1886278;75;26207;-49
2022/09/09 01:06:33;;;;;;;0.20;0.20;;;;;;;;;;1896234;75;26328;-44
2022/09/09 01:09:19;;;;;;;0.25;0.25;;;;;;;;;;1893474;75;26726;-51
2022/09/09 01:12:03;;;;;;;0.30;0.30;;;;;;;;;;1888236;75;26244;-45
2022/09/09 01:14:32;;;;;;;0.30;0.30;;;;;;;;;;1871582;75;26258;-48
2022/09/09 01:17:00;;;;;;;0.35;0.35;;;;;;;;;;1872659;75;26322;-47
2022/09/09 01:19:45;;;;;;;0.30;0.30;;;;;;;;;;1879636;75;26188;-49
2022/09/09 01:22:14;;;;;;;0.30;0.30;;;;;;;;;;1885675;75;26680;-48
2022/09/09 01:24:43;;;;;;;0.20;0.20;;;;;;;;;;1893057;75;26349;-49
2022/09/09 01:27:11;;;;;;;0.20;0.20;;;;;;;;;;1882167;75;26271;-53
2022/09/09 01:29:38;;;;;;;0.30;0.30;;;;;;;;;;1874169;75;26529;-50
2022/09/09 01:32:24;;;;;;;0.20;0.20;;;;;;;;;;1873067;75;26319;-49
2022/09/09 01:34:52;;;;;;;0.20;0.20;;;;;;;;;;1868984;75;26719;-51
2022/09/09 01:37:19;;;;;;;0.30;0.30;;;;;;;;;;1878587;75;26304;-46
2022/09/09 01:39:47;;;;;;;0.10;0.10;;;;;;;;;;1865142;75;26328;-49
2022/09/09 01:42:16;;;;;;;0.10;0.10;;;;;;;;;;1887318;75;26700;-46
2022/09/09 01:44:43;;;;;;;0.20;0.20;;;;;;;;;;1869081;75;26265;-48
2022/09/09 01:47:11;;;;;;;0.20;0.20;;;;;;;;;;1867234;75;26726;-52
2022/09/09 01:49:38;;;;;;;0.20;0.20;;;;;;;;;;1882783;75;26660;-46
2022/09/09 01:52:05;;;;;;;0.20;0.20;;;;;;;;;;1871313;75;26873;-45
2022/09/09 01:54:33;;;;;;;0.23;0.23;;;;;;;;;;1871463;75;26345;-44
2022/09/09 01:57:11;;;;;;;1.37;0.25;;;;;;;;;;1874185;75;26242;-52
2022/09/09 01:59:58;;;;;;;0.20;0.20;;;;;;;;;;1890234;75;26340;-49
2022/09/09 02:02:27;;;;;;;0.20;0.20;;;;;;;;;;1879052;75;26301;-48
2022/09/09 02:04:58;;;;;;;0.15;0.15;;;;;;;;;;1869334;75;26248;-44
2022/09/09 02:07:30;;;;;;;0.10;0.10;;;;;;;;;;1874283;75;26832;-47
2022/09/09 02:09:59;;;;;;;0.17;0.17;;;;;;;;;;1878937;75;26184;-49
2022/09/09 02:12:28;;;;;;;0.30;0.30;;;;;;;;;;1853066;75;26252;-47
2022/09/09 02:14:56;;;;;;;0.20;0.20;;;;;;;;;;1892199;75;26223;-45
2022/09/09 02:17:25;;;;;;;0.10;0.10;;;;;;;;;;1883165;75;26304;-44
2022/09/09 02:19:54;;;;;;;0.20;0.20;;;;;;;;;;1890474;75;26297;-50
2022/09/09 02:22:23;;;;;;;0.15;0.15;;;;;;;;;;1888833;75;26266;-47
2022/09/09 02:24:52;;;;;;;0.23;0.20;;;;;;;;;;1902932;75;26365;-49
2022/09/09 02:27:21;;;;;;;0.17;0.17;;;;;;;;;;1905774;75;26254;-44
2022/09/09 02:29:50;;;;;;;0.10;0.10;;;;;;;;;;1899879;75;26375;-49
2022/09/09 02:32:22;;;;;;;0.20;0.20;;;;;;;;;;1912113;75;26315;-49
2022/09/09 02:35:00;;;;;;;0.10;0.10;;;;;;;;;;1907474;75;26412;-46
2022/09/09 02:37:29;;;;;;;0.20;0.20;;;;;;;;;;1891671;75;26703;-51
2022/09/09 02:39:56;;;;;;;0.25;0.25;;;;;;;;;;1888522;75;26251;-51
2022/09/09 02:42:23;;;;;;;0.20;0.20;;;;;;;;;;1906891;75;26719;-45
2022/09/09 02:44:51;;;;;;;0.10;0.10;;;;;;;;;;1903753;75;26258;-45
2022/09/09 02:47:38;;;;;;;0.17;0.17;;;;;;;;;;1898376;75;26234;-50
2022/09/09 02:50:22;;;;;;;0.20;0.20;;;;;;;;;;1899991;75;26272;-44
2022/09/09 02:53:08;;;;;;;0.20;0.20;;;;;;;;;;1880783;75;26690;-44
2022/09/09 02:55:36;;;;;;;0.10;0.10;;;;;;;;;;1886639;75;26774;-47
2022/09/09 02:58:06;;;;;;;0.30;0.23;;;;;;;;;;1891123;75;26929;-55
2022/09/09 03:00:35;;;;;;;0.20;0.20;;;;;;;;;;1889878;75;26238;-58
2022/09/09 03:03:04;;;;;;;0.20;0.20;;;;;;;;;;1902808;75;26203;-44
2022/09/09 03:05:31;;;;;;;0.00;0.00;;;;;;;;;;1900751;75;26244;-52
2022/09/09 03:07:59;;;;;;;0.30;0.30;;;;;;;;;;1904144;75;26235;-43
2022/09/09 03:10:27;;;;;;;0.28;0.28;;;;;;;;;;1896472;75;26770;-46
2022/09/09 03:12:55;;;;;;;0.40;0.40;;;;;;;;;;1905173;75;27503;-44
2022/09/09 03:15:22;;;;;;;0.20;0.20;;;;;;;;;;1906510;74;26255;-46
2022/09/09 03:17:49;;;;;;;0.20;0.20;;;;;;;;;;1901951;75;26301;-48
2022/09/09 03:20:17;;;;;;;0.20;0.20;;;;;;;;;;1894876;75;26308;-44
2022/09/09 03:22:44;;;;;;;0.30;0.30;;;;;;;;;;1909381;75;26255;-47
2022/09/09 03:25:12;;;;;;;0.30;0.30;;;;;;;;;;1905894;75;26330;-47
2022/09/09 03:27:40;;;;;;;0.30;0.30;;;;;;;;;;1888021;75;26263;-53
2022/09/09 03:30:08;;;;;;;0.30;0.30;;;;;;;;;;1884300;74;26671;-46
2022/09/09 03:32:35;;;;;;;0.20;0.20;;;;;;;;;;1890636;75;27500;-47
2022/09/09 03:35:02;;;;;;;0.30;0.30;;;;;;;;;;1899434;74;26662;-47
2022/09/09 03:37:31;;;;;;;0.20;0.20;;;;;;;;;;1862509;75;26516;-45
2022/09/09 03:39:59;;;;;;;0.28;0.28;;;;;;;;;;1872799;75;26731;-47
2022/09/09 03:42:27;;;;;;;0.20;0.20;;;;;;;;;;1870692;75;26277;-43
2022/09/09 03:44:54;;;;;;;0.20;0.20;;;;;;;;;;1887290;75;26750;-48
2022/09/09 03:47:24;;;;;;;0.30;0.30;;;;;;;;;;1886139;75;26705;-50
2022/09/09 03:49:51;;;;;;;0.20;0.20;;;;;;;;;;1890849;75;26252;-50
2022/09/09 03:52:19;;;;;;;0.30;0.30;;;;;;;;;;1875206;75;26254;-48
2022/09/09 03:54:47;;;;;;;0.20;0.20;;;;;;;;;;1877962;75;26777;-46
2022/09/09 03:57:16;;;;;;;0.20;0.20;;;;;;;;;;1873744;75;26323;-48
2022/09/09 03:59:44;;;;;;;0.20;0.20;;;;;;;;;;1866122;75;26274;-48
2022/09/09 04:02:11;;;;;;;0.20;0.20;;;;;;;;;;1893947;75;26219;-55
2022/09/09 04:04:38;;;;;;;0.20;0.20;;;;;;;;;;1877923;75;26247;-51
2022/09/09 04:07:06;;;;;;;0.20;0.20;;;;;;;;;;1881119;75;26259;-46
2022/09/09 04:09:34;;;;;;;0.10;0.10;;;;;;;;;;1892466;75;26253;-45
2022/09/09 04:12:02;;;;;;;0.30;0.30;;;;;;;;;;1895923;75;26286;-48
2022/09/09 04:14:29;;;;;;;0.20;0.20;;;;;;;;;;1900310;75;26301;-54
2022/09/09 04:16:57;;;;;;;0.20;0.20;;;;;;;;;;1877826;75;26317;-50
2022/09/09 04:19:24;;;;;;;0.28;0.28;;;;;;;;;;1889956;75;26282;-49
2022/09/09 04:21:51;;;;;;;0.20;0.20;;;;;;;;;;1876159;75;26192;-48
2022/09/09 04:24:19;;;;;;;0.30;0.30;;;;;;;;;;1889778;75;26290;-50
2022/09/09 04:26:47;;;;;;;0.20;0.20;;;;;;;;;;1893436;75;26284;-48
2022/09/09 04:29:14;;;;;;;0.30;0.30;;;;;;;;;;1895121;75;26251;-49
2022/09/09 04:31:41;;;;;;;0.17;0.17;;;;;;;;;;1896440;75;26299;-49
2022/09/09 04:34:09;;;;;;;0.20;0.20;;;;;;;;;;1896344;75;26267;-50
2022/09/09 04:36:41;;;;;;;0.15;0.15;;;;;;;;;;1892078;75;26893;-52
2022/09/09 04:39:06;;;;;;;0.10;0.10;;;;;;;;;;1892845;75;26392;-52
2022/09/09 04:41:33;;;;;;;0.20;0.20;;;;;;;;;;1892050;75;26307;-50
2022/09/09 04:44:00;;;;;;;0.20;0.20;;;;;;;;;;1893144;75;26231;-48
2022/09/09 04:46:28;;;;;;;0.17;0.17;;;;;;;;;;1889607;75;26179;-46
2022/09/09 04:48:55;;;;;;;0.28;0.28;;;;;;;;;;1888511;75;26658;-48
2022/09/09 04:51:22;;;;;;;0.30;0.30;;;;;;;;;;1883070;75;26274;-43
2022/09/09 04:53:50;;;;;;;1.17;0.42;;;;;;;;;;1888566;75;26226;-47
2022/09/09 04:56:18;;;;;;;0.37;0.35;;;;;;;;;;1883810;75;26852;-43
2022/09/09 04:58:46;;;;;;;0.30;0.30;;;;;;;;;;1880820;75;26251;-50
2022/09/09 05:01:14;;;;;;;1.12;0.20;;;;;;;;;;1893655;75;27084;-46
2022/09/09 05:03:42;;;;;;;0.40;0.40;;;;;;;;;;1884595;75;26279;-44
2022/09/09 05:06:11;;;;;;;1.25;0.37;;;;;;;;;;1890824;75;26239;-46
2022/09/09 05:08:38;;;;;;;0.40;0.40;;;;;;;;;;1893750;75;26706;-44
2022/09/09 05:11:19;;;;;;;0.37;0.37;;;;;;;;;;1888705;75;26317;-46
2022/09/09 05:13:47;;;;;;;1.12;0.37;;;;;;;;;;1888869;75;27434;-49
2022/09/09 05:16:15;;;;;;;3.10;0.40;;;;;;;;;;1889906;75;26352;-46
2022/09/09 05:18:45;;;;;;;6.20;0.90;;;;;;;;;;1885775;75;26263;-41
2022/09/09 05:21:14;;;;;;;1.92;0.85;;;;;;;;;;1890392;75;26829;-49
2022/09/09 05:23:41;;;;;;;2.72;0.50;;;;;;;;;;1888243;75;26266;-46
2022/09/09 05:26:10;;;;;;;3.52;0.80;;;;;;;;;;1893474;75;26352;-41
2022/09/09 05:28:37;;;;;;;3.15;0.62;;;;;;;;;;1907968;75;26724;-44
2022/09/09 05:31:07;;;;;;;3.20;0.70;;;;;;;;;;1905657;75;26787;-52
2022/09/09 05:33:36;;;;;;;3.15;0.70;;;;;;;;;;1908592;75;26238;-45
2022/09/09 05:36:08;;;;;;;0.50;0.42;;;;;;;;;;1897271;75;26238;-48
2022/09/09 05:38:36;;;;;;;2.90;0.68;;;;;;;;;;1904339;75;26625;-42
2022/09/09 05:41:03;;;;;;;1.02;0.60;;;;;;;;;;1906529;75;26782;-46
2022/09/09 05:43:32;;;;;;;1.82;0.40;;;;;;;;;;1905271;75;26533;-49
2022/09/09 05:46:01;;;;;;;4.55;0.60;;;;;;;;;;1909104;75;26649;-45
2022/09/09 05:48:30;;;;;;;2.00;0.60;;;;;;;;;;1895563;75;26309;-42
2022/09/09 05:50:57;;;;;;;2.85;0.53;;;;;;;;;;1902455;75;26255;-43
2022/09/09 05:53:25;;;;;;;1.27;0.50;;;;;;;;;;1905818;75;26269;-42
2022/09/09 05:55:53;;;;;;;1.37;0.47;;;;;;;;;;1902413;75;26297;-42
2022/09/09 05:58:21;;;;;;;0.40;0.40;;;;;;;;;;1910198;75;26322;-47
2022/09/09 06:00:48;;;;;;;3.90;0.88;;;;;;;;;;1894565;75;26242;-47
2022/09/09 06:03:16;;;;;;;4.20;0.90;;;;;;;;;;1875585;75;26253;-45
2022/09/09 06:05:44;;;;;;;2.25;0.70;;;;;;;;;;1898632;75;26330;-44
2022/09/09 06:08:11;;;;;;;1.02;0.60;;;;;;;;;;1899575;75;26352;-44
2022/09/09 06:10:39;;;;;;;1.75;0.60;;;;;;;;;;1906831;75;26243;-46
2022/09/09 06:13:06;;;;;;;3.00;0.50;;;;;;;;;;1888287;75;26238;-45
2022/09/09 06:15:34;;;;;;;0.35;0.35;;;;;;;;;;1898795;75;26266;-42
2022/09/09 06:18:01;;;;;;;1.35;0.40;;;;;;;;;;1900222;74;26254;-43
2022/09/09 06:20:30;;;;;;;0.95;0.37;;;;;;;;;;1906372;75;26325;-42
2022/09/09 06:22:57;;;;;;;1.70;0.70;;;;;;;;;;1896775;75;26304;-42
2022/09/09 06:25:25;;;;;;;1.05;0.53;;;;;;;;;;1908705;75;26206;-44
2022/09/09 06:27:52;;;;;;;1.32;0.70;;;;;;;;;;1889402;75;26278;-44
2022/09/09 06:30:19;;;;;;;0.65;0.40;;;;;;;;;;1909160;75;26305;-44
2022/09/09 06:32:46;;;;;;;0.70;0.50;;;;;;;;;;1908942;75;26243;-45
2022/09/09 06:35:14;;;;;;;1.65;0.60;;;;;;;;;;1897306;75;26340;-45
2022/09/09 06:37:42;;;;;;;0.98;0.50;;;;;;;;;;1868609;75;26321;-48
2022/09/09 06:40:10;;;;;;;0.53;0.40;;;;;;;;;;1889683;75;26825;-43
2022/09/09 06:42:38;;;;;;;2.17;0.40;;;;;;;;;;1886062;75;26254;-46
2022/09/09 06:45:07;;;;;;;0.65;0.50;;;;;;;;;;1896344;75;26298;-45
2022/09/09 06:47:34;;;;;;;0.93;0.50;;;;;;;;;;1877885;75;26286;-45
2022/09/09 06:50:01;;;;;;;1.40;0.50;;;;;;;;;;1879878;75;26281;-44
2022/09/09 06:52:28;;;;;;;0.40;0.40;;;;;;;;;;1872070;75;26240;-41
2022/09/09 06:54:58;;;;;;;0.40;0.40;;;;;;;;;;1879803;75;26240;-45
2022/09/09 06:57:25;;;;;;;0.65;0.30;;;;;;;;;;1875567;75;26341;-47
2022/09/09 06:59:52;;;;;;;0.30;0.30;;;;;;;;;;1881134;75;26304;-45
2022/09/09 07:02:19;;;;;;;0.30;0.30;;;;;;;;;;1875635;75;26557;-43
2022/09/09 07:04:47;;;;;;;0.30;0.30;;;;;;;;;;1889537;75;26382;-43
2022/09/09 07:07:15;;;;;;;3.47;0.90;;;;;;;;;;1882971;75;26252;-43
2022/09/09 07:09:42;;;;;;;0.33;0.33;;;;;;;;;;1870302;75;26389;-43
2022/09/09 07:12:09;;;;;;;0.45;0.45;;;;;;;;;;1900015;75;26863;-42
2022/09/09 07:14:37;;;;;;;0.37;0.37;;;;;;;;;;1881774;75;26227;-48
2022/09/09 07:17:05;;;;;;;1.55;0.47;;;;;;;;;;1892023;75;26297;-45
2022/09/09 07:19:33;;;;;;;0.88;0.35;;;;;;;;;;1880273;75;27564;-48
2022/09/09 07:22:03;;;;;;;1.42;0.45;;;;;;;;;;1877686;75;26254;-43
2022/09/09 07:24:30;;;;;;;0.98;0.50;;;;;;;;;;1893172;75;26335;-45
2022/09/09 07:26:58;;;;;;;0.40;0.40;;;;;;;;;;1890854;75;25810;-47
2022/09/09 07:29:25;;;;;;;0.35;0.35;;;;;;;;;;1880775;75;26305;-46
2022/09/09 07:31:52;;;;;;;0.72;0.40;;;;;;;;;;1899276;75;26237;-42
2022/09/09 07:34:20;;;;;;;0.40;0.40;;;;;;;;;;1908355;75;26238;-45
2022/09/09 07:36:48;;;;;;;0.50;0.50;;;;;;;;;;1881814;75;26320;-47
2022/09/09 07:39:17;;;;;;;0.93;0.57;;;;;;;;;;1903721;75;26259;-48
2022/09/09 07:41:48;;;;;;;0.55;0.45;;;;;;;;;;1874311;75;26318;-41
2022/09/09 07:44:17;;;;;;;0.50;0.50;;;;;;;;;;1873338;75;26311;-46
2022/09/09 07:46:45;;;;;;;0.40;0.40;;;;;;;;;;1890750;75;26273;-44
2022/09/09 07:49:12;;;;;;;0.40;0.40;;;;;;;;;;1897533;75;26259;-48
2022/09/09 07:51:41;;;;;;;0.30;0.30;;;;;;;;;;1899240;75;26345;-46
2022/09/09 07:54:10;;;;;;;0.40;0.40;;;;;;;;;;1896363;75;26259;-44
2022/09/09 07:56:39;;;;;;;0.70;0.40;;;;;;;;;;1880832;75;26745;-41
2022/09/09 07:59:07;;;;;;;0.30;0.30;;;;;;;;;;1894079;75;26258;-43
2022/09/09 08:01:39;;;;;;;1.12;0.40;;;;;;;;;;1881612;74;26223;-48
2022/09/09 08:04:07;;;;;;;1.12;0.40;;;;;;;;;;1890670;75;26251;-46
2022/09/09 08:06:37;;;;;;;0.42;0.40;;;;;;;;;;1894611;75;26377;-41
2022/09/09 08:09:05;;;;;;;0.40;0.40;;;;;;;;;;1881625;75;26195;-51
2022/09/09 08:11:33;;;;;;;0.88;0.40;;;;;;;;;;1888069;75;26950;-47
2022/09/09 08:14:00;;;;;;;0.23;0.23;;;;;;;;;;1884071;75;26250;-45
2022/09/09 08:16:30;;;;;;;0.35;0.35;;;;;;;;;;1892894;75;26248;-46
2022/09/09 08:18:57;;;;;;;3.50;0.40;;;;;;;;;;1896214;75;26239;-43
2022/09/09 08:21:27;;;;;;;2.75;0.40;;;;;;;;;;1893291;75;26232;-44
2022/09/09 08:23:56;;;;;;;2.72;0.50;;;;;;;;;;1885652;75;26321;-44
2022/09/09 08:26:24;;;;;;;0.40;0.40;;;;;;;;;;1885470;75;26802;-45
2022/09/09 08:28:53;;;;;;;1.42;0.30;;;;;;;;;;1886302;75;26783;-48
2022/09/09 08:31:21;;;;;;;1.75;0.30;;;;;;;;;;1880256;75;26243;-50
2022/09/09 08:33:49;;;;;;;0.62;0.30;;;;;;;;;;1878487;75;26243;-44
2022/09/09 08:36:18;;;;;;;2.98;0.70;;;;;;;;;;1877210;75;26295;-44
2022/09/09 08:38:46;;;;;;;0.75;0.40;;;;;;;;;;1876942;75;26700;-45
2022/09/09 08:41:32;;;;;;;1.17;0.37;;;;;;;;;;1879035;75;26760;-46
2022/09/09 08:44:00;;;;;;;0.42;0.40;;;;;;;;;;1878278;75;26243;-44
2022/09/09 08:46:29;;;;;;;0.53;0.30;;;;;;;;;;1882873;75;26195;-44
2022/09/09 08:48:58;;;;;;;3.10;0.30;;;;;;;;;;1883670;75;26323;-51
2022/09/09 08:51:27;;;;;;;0.40;0.30;;;;;;;;;;1888153;75;26320;-47
2022/09/09 08:53:55;;;;;;;1.90;0.45;;;;;;;;;;1868748;75;26320;-51
2022/09/09 08:56:24;;;;;;;0.30;0.30;;;;;;;;;;1881029;75;26216;-45
2022/09/09 08:58:52;;;;;;;0.23;0.20;;;;;;;;;;1900297;75;26718;-47
2022/09/09 09:01:21;;;;;;;5.12;0.57;;;;;;;;;;1877102;75;26232;-43
2022/09/09 09:04:05;;;;;;;7.78;0.40;;;;;;;;;;1865791;75;26381;-44
2022/09/09 09:06:35;;;;;;;3.12;0.45;;;;;;;;;;1896872;75;26361;-48
2022/09/09 09:09:04;;;;;;;1.27;0.28;;;;;;;;;;1884519;75;26277;-49
2022/09/09 09:11:42;;;;;;;5.85;0.30;;;;;;;;;;1897418;75;26336;-45
2022/09/09 09:14:11;;;;;;;1.35;0.20;;;;;;;;;;1855251;75;26248;-46
2022/09/09 09:16:43;;;;;;;1.82;0.28;;;;;;;;;;1890895;75;26762;-43
2022/09/09 09:19:14;;;;;;;5.40;0.30;;;;;;;;;;1879799;75;26393;-47
2022/09/09 09:21:43;;;;;;;2.45;0.20;;;;;;;;;;1886282;75;26864;-47
2022/09/09 09:24:15;;;;;;;0.20;0.20;;;;;;;;;;1895237;75;27306;-40
2022/09/09 09:26:43;;;;;;;1.47;0.30;;;;;;;;;;1888277;75;26325;-43
2022/09/09 09:29:12;;;;;;;0.30;0.30;;;;;;;;;;1890290;75;26296;-45
2022/09/09 09:31:41;;;;;;;4.47;0.30;;;;;;;;;;1892792;75;26585;-44
2022/09/09 09:34:11;;;;;;;2.47;0.40;;;;;;;;;;1885567;74;26253;-41
2022/09/09 09:36:42;;;;;;;1.35;0.30;;;;;;;;;;1877690;75;26251;-46
2022/09/09 09:39:09;;;;;;;0.57;0.33;;;;;;;;;;1866322;76;26265;-43
2022/09/09 09:41:38;;;;;;;1.92;0.30;;;;;;;;;;1878493;76;26302;-44
2022/09/09 09:44:08;;;;;;;4.60;0.30;;;;;;;;;;1791554;79;26335;-43
2022/09/09 09:46:36;;;;;;;2.40;0.42;;;;;;;;;;1865973;76;26349;-50
2022/09/09 09:49:09;;;;;;;0.85;0.30;;;;;;;;;;1881185;76;26718;-40
2022/09/09 09:51:36;;;;;;;2.50;0.30;;;;;;;;;;1850232;76;26727;-46
2022/09/09 09:54:05;;;;;;;2.12;0.40;;;;;;;;;;1870283;76;26222;-50
2022/09/09 09:56:32;;;;;;;0.75;0.30;;;;;;;;;;1876594;76;26799;-46
2022/09/09 09:59:00;;;;;;;1.55;0.40;;;;;;;;;;1885284;76;26238;-48
2022/09/09 10:01:29;;;;;;;0.90;0.40;;;;;;;;;;1872810;76;26317;-46
2022/09/09 10:04:04;;;;;;;0.65;0.23;;;;;;;;;;1885452;76;26216;-43
2022/09/09 10:06:35;;;;;;;0.23;0.23;;;;;;;;;;1882241;76;26668;-44
2022/09/09 10:09:04;;;;;;;2.85;0.35;;;;;;;;;;1873796;75;26358;-47
2022/09/09 10:11:36;;;;;;;7.90;0.30;;;;;;;;;;1880385;75;26294;-48
2022/09/09 10:14:24;;;;;;;4.90;0.25;;;;;;;;;;1884672;76;26706;-45
2022/09/09 10:17:11;;;;;;;3.02;0.33;;;;;;;;;;1879142;75;26208;-44
2022/09/09 10:19:39;;;;;;;1.42;0.30;;;;;;;;;;1883403;76;26257;-51
2022/09/09 10:22:14;;;;;;;2.08;0.20;;;;;;;;;;1884196;76;26297;-46
2022/09/09 10:24:46;;;;;;;0.20;0.20;;;;;;;;;;1879692;76;26247;-43
2022/09/09 10:27:30;;;;;;;2.50;0.25;;;;;;;;;;1878523;76;26482;-48
2022/09/09 10:30:08;;;;;;;0.20;0.20;;;;;;;;;;1880450;75;26539;-44
2022/09/09 10:32:40;;;;;;;1.75;0.33;;;;;;;;;;1902769;75;26344;-42
2022/09/09 10:35:12;;;;;;;0.47;0.30;;;;;;;;;;1903651;75;27430;-41
2022/09/09 10:37:43;;;;;;;6.70;0.40;;;;;;;;;;1906241;75;26250;-47
2022/09/09 10:40:21;;;;;;;2.60;0.40;;;;;;;;;;1886783;75;26350;-45
2022/09/09 10:42:49;;;;;;;0.30;0.30;;;;;;;;;;1876927;75;27375;-47
2022/09/09 10:45:18;;;;;;;0.30;0.30;;;;;;;;;;1883497;75;26405;-49
2022/09/09 10:47:53;;;;;;;0.57;0.40;;;;;;;;;;1879485;74;26258;-42
2022/09/09 10:50:38;;;;;;;0.30;0.30;;;;;;;;;;1875656;75;26678;-49
2022/09/09 10:53:13;;;;;;;0.30;0.30;;;;;;;;;;1885836;75;26243;-49
2022/09/09 10:55:42;;;;;;;0.40;0.20;;;;;;;;;;1889711;75;26352;-43
2022/09/09 10:58:11;;;;;;;0.30;0.30;;;;;;;;;;1883627;75;26331;-45
2022/09/09 11:00:43;;;;;;;0.37;0.30;;;;;;;;;;1886875;75;26265;-41
2022/09/09 11:03:12;;;;;;;0.30;0.30;;;;;;;;;;1884766;75;26258;-45
2022/09/09 11:05:45;;;;;;;0.25;0.25;;;;;;;;;;1880082;75;26278;-48
2022/09/09 11:08:19;;;;;;;0.72;0.40;;;;;;;;;;1887748;75;26720;-52
2022/09/09 11:10:48;;;;;;;1.47;0.40;;;;;;;;;;1883738;75;26367;-43
2022/09/09 11:13:17;;;;;;;2.83;0.40;;;;;;;;;;1881091;74;26273;-43
2022/09/09 11:15:46;;;;;;;0.50;0.50;;;;;;;;;;1882978;74;26261;-45
2022/09/09 11:18:17;;;;;;;0.53;0.35;;;;;;;;;;1883230;75;26263;-42
2022/09/09 11:20:47;;;;;;;1.40;0.50;;;;;;;;;;1881792;75;26312;-42
2022/09/09 11:23:16;;;;;;;0.30;0.30;;;;;;;;;;1882875;74;26370;-44
2022/09/09 11:25:44;;;;;;;1.55;0.40;;;;;;;;;;1887163;75;26271;-45
2022/09/09 11:28:15;;;;;;;0.33;0.33;;;;;;;;;;1882957;75;26769;-47
2022/09/09 11:30:47;;;;;;;0.35;0.30;;;;;;;;;;1879864;75;26325;-44
2022/09/09 11:33:15;;;;;;;0.30;0.30;;;;;;;;;;1883940;75;26256;-48
2022/09/09 11:35:50;;;;;;;0.40;0.40;;;;;;;;;;1875832;75;26300;-43
2022/09/09 11:38:31;;;;;;;0.50;0.50;;;;;;;;;;1876915;75;26733;-46
2022/09/09 11:41:00;;;;;;;0.28;0.28;;;;;;;;;;1815516;75;26248;-44
2022/09/09 11:43:29;;;;;;;0.42;0.42;;;;;;;;;;1882973;75;26246;-47
2022/09/09 11:45:58;;;;;;;0.40;0.40;;;;;;;;;;1876599;75;27145;-47
2022/09/09 11:48:30;;;;;;;0.50;0.50;;;;;;;;;;1876937;75;26366;-49
2022/09/09 11:50:59;;;;;;;0.45;0.45;;;;;;;;;;1878186;75;26369;-50
2022/09/09 11:53:27;;;;;;;0.50;0.50;;;;;;;;;;1880698;75;26339;-44
2022/09/09 11:56:03;;;;;;;0.40;0.40;;;;;;;;;;1877657;75;26304;-41
2022/09/09 11:58:32;;;;;;;1.75;0.40;;;;;;;;;;1881303;75;26628;-43
2022/09/09 12:00:59;;;;;;;0.40;0.40;;;;;;;;;;1878147;75;26271;-51
2022/09/09 12:03:37;;;;;;;0.42;0.42;;;;;;;;;;1874550;75;26961;-47
2022/09/09 12:06:15;;;;;;;0.40;0.40;;;;;;;;;;1880592;75;26274;-50
2022/09/09 12:08:45;;;;;;;0.40;0.40;;;;;;;;;;1881242;75;26358;-46
2022/09/09 12:11:12;;;;;;;1.35;0.40;;;;;;;;;;1884105;75;26293;-48
2022/09/09 12:13:41;;;;;;;0.65;0.50;;;;;;;;;;1880613;75;26307;-42
2022/09/09 12:16:10;;;;;;;0.35;0.35;;;;;;;;;;1879782;75;26772;-45
2022/09/09 12:18:39;;;;;;;0.50;0.50;;;;;;;;;;1876420;75;27444;-46
2022/09/09 12:21:24;;;;;;;0.62;0.30;;;;;;;;;;1882205;75;26255;-47
2022/09/09 12:23:53;;;;;;;0.78;0.42;;;;;;;;;;1877709;75;26287;-52
2022/09/09 12:26:28;;;;;;;0.40;0.40;;;;;;;;;;1875423;75;26257;-48
2022/09/09 12:28:57;;;;;;;0.50;0.50;;;;;;;;;;1877426;75;26338;-46
2022/09/09 12:31:31;;;;;;;0.40;0.40;;;;;;;;;;1881525;75;26718;-45
2022/09/09 12:34:12;;;;;;;0.40;0.40;;;;;;;;;;1884340;75;26624;-48
2022/09/09 12:36:40;;;;;;;0.60;0.60;;;;;;;;;;1880083;75;26550;-50
2022/09/09 12:39:12;;;;;;;0.50;0.50;;;;;;;;;;1877451;75;26775;-46
2022/09/09 12:41:39;;;;;;;0.42;0.42;;;;;;;;;;1858246;75;26263;-44
2022/09/09 12:44:08;;;;;;;0.55;0.55;;;;;;;;;;1874783;75;26228;-44
2022/09/09 12:46:43;;;;;;;0.70;0.40;;;;;;;;;;1875484;75;26782;-52
2022/09/09 12:49:24;;;;;;;1.72;0.40;;;;;;;;;;1876162;75;26277;-47
2022/09/09 12:51:51;;;;;;;0.50;0.50;;;;;;;;;;1824128;75;26868;-47
2022/09/09 12:54:20;;;;;;;0.40;0.40;;;;;;;;;;1872444;75;26277;-47
2022/09/09 12:56:48;;;;;;;0.40;0.40;;;;;;;;;;1872204;75;25853;-47
2022/09/09 12:59:26;;;;;;;0.35;0.35;;;;;;;;;;1873846;75;26297;-56
2022/09/09 13:01:59;;;;;;;0.40;0.40;;;;;;;;;;1875708;75;26250;-45
2022/09/09 13:04:27;;;;;;;0.65;0.50;;;;;;;;;;1877177;75;26739;-50
2022/09/09 13:06:55;;;;;;;0.57;0.50;;;;;;;;;;1876444;75;26281;-53
2022/09/09 13:09:22;;;;;;;0.50;0.50;;;;;;;;;;1871738;75;26373;-47
2022/09/09 13:11:51;;;;;;;2.30;0.70;;;;;;;;;;1872564;75;26777;-41
2022/09/09 13:14:20;;;;;;;0.60;0.60;;;;;;;;;;1873513;75;26768;-45
2022/09/09 13:16:57;;;;;;;0.70;0.50;;;;;;;;;;1875773;75;26758;-44
2022/09/09 13:19:28;;;;;;;0.40;0.40;;;;;;;;;;1874607;75;26220;-44
2022/09/09 13:21:56;;;;;;;0.60;0.37;;;;;;;;;;1875763;75;26277;-53
2022/09/09 13:24:29;;;;;;;0.50;0.50;;;;;;;;;;1880476;75;26544;-45
2022/09/09 13:26:57;;;;;;;0.40;0.40;;;;;;;;;;1879914;75;26306;-46
2022/09/09 13:29:25;;;;;;;0.50;0.50;;;;;;;;;;1876605;75;26348;-43
2022/09/09 13:31:53;;;;;;;0.40;0.40;;;;;;;;;;1877050;75;26254;-46
2022/09/09 13:34:28;;;;;;;0.53;0.53;;;;;;;;;;1876739;75;26251;-45
2022/09/09 13:37:02;;;;;;;0.35;0.35;;;;;;;;;;1872363;75;26835;-45
2022/09/09 13:39:29;;;;;;;1.02;0.57;;;;;;;;;;1880402;75;26340;-49
2022/09/09 13:41:57;;;;;;;0.35;0.35;;;;;;;;;;1870531;75;26706;-45
2022/09/09 13:44:25;;;;;;;1.40;0.40;;;;;;;;;;1879949;75;26279;-48
2022/09/09 13:47:06;;;;;;;0.80;0.60;;;;;;;;;;1872088;75;26303;-47
2022/09/09 13:49:33;;;;;;;0.60;0.60;;;;;;;;;;1873240;75;26233;-49
2022/09/09 13:52:08;;;;;;;0.50;0.50;;;;;;;;;;1879407;75;27469;-44
2022/09/09 13:54:36;;;;;;;1.65;0.50;;;;;;;;;;1871913;75;26388;-48
2022/09/09 13:57:04;;;;;;;1.30;0.53;;;;;;;;;;1878400;75;26277;-47
2022/09/09 13:59:32;;;;;;;0.50;0.50;;;;;;;;;;1876192;75;26318;-45
2022/09/09 14:01:59;;;;;;;0.55;0.40;;;;;;;;;;1876689;75;26777;-47
2022/09/09 14:04:26;;;;;;;0.53;0.50;;;;;;;;;;1876908;75;26255;-46
2022/09/09 14:06:53;;;;;;;0.60;0.60;;;;;;;;;;1873799;75;26340;-51
2022/09/09 14:09:21;;;;;;;1.20;0.60;;;;;;;;;;1880725;75;26817;-44
2022/09/09 14:11:48;;;;;;;0.62;0.50;;;;;;;;;;1877092;75;27649;-46
2022/09/09 14:14:15;;;;;;;0.60;0.60;;;;;;;;;;1873318;75;26257;-43
2022/09/09 14:16:42;;;;;;;0.40;0.40;;;;;;;;;;1874558;75;26534;-43
2022/09/09 14:19:10;;;;;;;0.53;0.53;;;;;;;;;;1877351;75;26286;-46
2022/09/09 14:21:38;;;;;;;0.60;0.60;;;;;;;;;;1875225;75;27292;-48
2022/09/09 14:24:06;;;;;;;0.37;0.37;;;;;;;;;;1876185;75;26325;-43
2022/09/09 14:26:33;;;;;;;0.40;0.40;;;;;;;;;;1883105;75;26247;-45
2022/09/09 14:29:01;;;;;;;0.60;0.60;;;;;;;;;;1873290;75;26264;-46
2022/09/09 14:31:28;;;;;;;0.40;0.40;;;;;;;;;;1873555;75;26786;-48
2022/09/09 14:33:55;;;;;;;0.50;0.50;;;;;;;;;;1879563;75;26299;-48
2022/09/09 14:36:24;;;;;;;0.60;0.60;;;;;;;;;;1870959;75;26257;-49
2022/09/09 14:38:51;;;;;;;0.50;0.50;;;;;;;;;;1876831;75;26262;-46
2022/09/09 14:41:19;;;;;;;0.72;0.68;;;;;;;;;;1875234;75;26302;-46
2022/09/09 14:43:47;;;;;;;0.50;0.50;;;;;;;;;;1875245;75;26734;-46
2022/09/09 14:46:15;;;;;;;1.87;0.40;;;;;;;;;;1879269;75;26302;-47
2022/09/09 14:48:43;;;;;;;0.50;0.50;;;;;;;;;;1873822;75;27850;-45
2022/09/09 14:51:12;;;;;;;0.50;0.50;;;;;;;;;;1871839;75;26649;-47
2022/09/09 14:53:40;;;;;;;0.55;0.55;;;;;;;;;;1872764;75;26776;-47
2022/09/09 14:56:12;;;;;;;0.60;0.60;;;;;;;;;;1874210;75;26304;-45
2022/09/09 14:58:40;;;;;;;0.40;0.40;;;;;;;;;;1877679;75;26374;-51